My webcam more information My webcam



Nearby METAR Reports

   
KTOL - Toledo, OH
Updated: Apr 19 2019 8:52 pm
Light Rain, Overcast  
Light Rain, Overcast  
   Wind: North 17.3 mph<br />Gust to 17.3 mph
Wind: North 17.3 mph
Gust to 17.3 mph
Temperature: 42.8°F
Wind Chill: 35.6°F
Dew Point: 35.6°F
Humidity: 76%
Barometer: 29.7 inHg
Clouds: Overcast
Visibility: 10 mi
Cloud details: Overcast 1400 ft
KTOL 200052Z 36015G19KT 10SM -RA OVC014 06/02 A2970 RMK AO2 PK WND 01026/0023 RAB12 SLP061 P0001 T00560022
KCMH - Columbus, OH
Updated: Apr 19 2019 8:51 pm
Overcast  
Overcast  
   Wind: North 17.3 mph
Wind: North 17.3 mph
Temperature: 42.8°F
Wind Chill: 35.6°F
Dew Point: 41°F
Humidity: 93%
Barometer: 29.55 inHg
Clouds: Overcast
Visibility: 10 mi
Cloud details: Overcast 1400 ft
KCMH 200051Z 01015KT 10SM OVC014 06/05 A2955 RMK AO2 PK WND 36026/0000 RAB29E45 SLP007 P0000 T00610050
KCLE - Cleveland, OH
Updated: Apr 19 2019 8:51 pm
Light Rain, Overcast  
Light Rain, Overcast  
   Wind: North 15 mph
Wind: North 15 mph
Temperature: 42.8°F
Wind Chill: 35.6°F
Dew Point: 41°F
Humidity: 93%
Barometer: 29.65 inHg
Clouds: Overcast
Visibility: 1 mi
Cloud details: Overcast 300 ft
KCLE 200051Z 36013KT 1SM -RA OVC003 06/05 A2965 RMK AO2 SFC VIS 7 SLP044 P0001 T00560050
KYNG - Youngstown, OH
Updated: Apr 19 2019 8:51 pm
Light Rain, Overcast  
Light Rain, Overcast  
   Wind: NE 12.7 mph
Wind: NE 12.7 mph
Temperature: 46.4°F
Wind Chill: 41°F
Dew Point: 44.6°F
Humidity: 93%
Barometer: 29.55 inHg
Clouds: Overcast
Visibility: 7 mi
Cloud details: Overcast 300 ft
KYNG 200051Z 04011KT 7SM -RA OVC003 08/07 A2955 RMK AO2 SLP006 P0000 T00780067
KDAY - Dayton, OH
Updated: Apr 19 2019 8:56 pm
Overcast  
Overcast  
   Wind: NNE 25.3 mph<br />Gust to 25.3 mph
Wind: NNE 25.3 mph
Gust to 25.3 mph
Temperature: 44.6°F
Wind Chill: 35.6°F
Dew Point: 39.2°F
Humidity: 81%
Barometer: 29.57 inHg
Clouds: Overcast
Visibility: 10 mi
Cloud details: Overcast 1000 ft
KDAY 200056Z 02022G29KT 10SM OVC010 07/04 A2957 RMK AO2 PK WND 01035/0033 SLP017 T00720039
KZZV - Zanesville, OH
Updated: Apr 19 2019 8:53 pm
Overcast  
Overcast  
   Wind: North 8.1 mph
Wind: North 8.1 mph
Temperature: 44.6°F
Wind Chill: 39.2°F
Dew Point: 41°F
Humidity: 87%
Barometer: 29.53 inHg
Clouds: Overcast
Visibility: 10 mi
Cloud details: Overcast 800 ft
KZZV 200053Z AUTO 36007KT 10SM OVC008 07/05 A2953 RMK AO2 SLP998 T00720050

Script developed by  Saratoga-weather.org Adapted for the template by  Weerstation Leuven

You find our weather info also at:

UK Metoffice

WeatherCloud

Weather Underground

Midwestern Weather Network

AWEKAS

Citizen Weather Observer Program (CWOP)

HAMweather, WeatherForYou, PWS Weather

Equipment we use:

Weather-station
Davis VP2

Weather-program
Cumulus

Weather-server
Raspberry Pi

Provider
GoDaddy

Davis VP2

Cumulus

Raspberry Pi

GoDaddy